sensor_id;sensor_type;location;lat;lon;timestamp;temperature;humidity
7341;DHT22;6870;50.944;6.932;2023-02-28T00:01:42;18.80;26.50
7341;DHT22;6870;50.944;6.932;2023-02-28T00:04:11;19.10;26.50
7341;DHT22;6870;50.944;6.932;2023-02-28T00:06:39;19.20;26.40
7341;DHT22;6870;50.944;6.932;2023-02-28T00:09:08;19.20;26.10
7341;DHT22;6870;50.944;6.932;2023-02-28T00:11:36;19.10;26.90
7341;DHT22;6870;50.944;6.932;2023-02-28T00:14:05;19.00;26.60
7341;DHT22;6870;50.944;6.932;2023-02-28T00:16:34;19.30;27.00
7341;DHT22;6870;50.944;6.932;2023-02-28T00:19:03;19.10;27.00
7341;DHT22;6870;50.944;6.932;2023-02-28T00:21:31;19.00;27.00
7341;DHT22;6870;50.944;6.932;2023-02-28T00:23:59;19.00;26.90
7341;DHT22;6870;50.944;6.932;2023-02-28T00:26:27;19.20;27.20
7341;DHT22;6870;50.944;6.932;2023-02-28T00:28:55;18.90;27.00
7341;DHT22;6870;50.944;6.932;2023-02-28T00:31:23;18.80;27.10
7341;DHT22;6870;50.944;6.932;2023-02-28T00:33:53;19.10;27.30
7341;DHT22;6870;50.944;6.932;2023-02-28T00:36:21;18.80;27.50
7341;DHT22;6870;50.944;6.932;2023-02-28T00:38:49;18.80;27.50
7341;DHT22;6870;50.944;6.932;2023-02-28T00:41:17;19.00;27.50
7341;DHT22;6870;50.944;6.932;2023-02-28T00:43:45;19.00;27.60
7341;DHT22;6870;50.944;6.932;2023-02-28T00:46:14;19.20;27.50
7341;DHT22;6870;50.944;6.932;2023-02-28T00:48:42;19.10;27.60
7341;DHT22;6870;50.944;6.932;2023-02-28T00:51:11;19.10;27.70
7341;DHT22;6870;50.944;6.932;2023-02-28T00:53:39;19.00;27.60
7341;DHT22;6870;50.944;6.932;2023-02-28T00:56:07;19.10;27.80
7341;DHT22;6870;50.944;6.932;2023-02-28T00:58:35;19.00;27.80
7341;DHT22;6870;50.944;6.932;2023-02-28T01:01:04;19.00;28.10
7341;DHT22;6870;50.944;6.932;2023-02-28T01:03:32;18.80;27.40
7341;DHT22;6870;50.944;6.932;2023-02-28T01:06:00;19.10;27.50
7341;DHT22;6870;50.944;6.932;2023-02-28T01:08:30;18.90;27.70
7341;DHT22;6870;50.944;6.932;2023-02-28T01:11:07;19.10;27.90
7341;DHT22;6870;50.944;6.932;2023-02-28T01:13:36;19.00;27.80
7341;DHT22;6870;50.944;6.932;2023-02-28T01:16:05;19.00;27.80
7341;DHT22;6870;50.944;6.932;2023-02-28T01:18:34;19.10;27.50
7341;DHT22;6870;50.944;6.932;2023-02-28T01:21:04;18.90;27.90
7341;DHT22;6870;50.944;6.932;2023-02-28T01:23:34;18.80;27.90
7341;DHT22;6870;50.944;6.932;2023-02-28T01:26:07;18.80;27.70
7341;DHT22;6870;50.944;6.932;2023-02-28T01:28:35;18.60;27.90
7341;DHT22;6870;50.944;6.932;2023-02-28T01:31:04;19.10;27.70
7341;DHT22;6870;50.944;6.932;2023-02-28T01:33:33;19.00;28.10
7341;DHT22;6870;50.944;6.932;2023-02-28T01:36:03;18.90;28.00
7341;DHT22;6870;50.944;6.932;2023-02-28T01:38:34;18.60;27.90
7341;DHT22;6870;50.944;6.932;2023-02-28T01:41:03;18.70;27.80
7341;DHT22;6870;50.944;6.932;2023-02-28T01:46:23;18.90;28.30
7341;DHT22;6870;50.944;6.932;2023-02-28T01:48:54;18.80;28.20
7341;DHT22;6870;50.944;6.932;2023-02-28T01:51:29;19.10;28.10
7341;DHT22;6870;50.944;6.932;2023-02-28T01:54:02;18.90;28.40
7341;DHT22;6870;50.944;6.932;2023-02-28T01:56:35;18.50;28.20
7341;DHT22;6870;50.944;6.932;2023-02-28T01:59:04;18.90;28.20
7341;DHT22;6870;50.944;6.932;2023-02-28T02:01:32;19.10;28.50
7341;DHT22;6870;50.944;6.932;2023-02-28T02:04:02;19.00;28.30
7341;DHT22;6870;50.944;6.932;2023-02-28T02:06:34;19.10;28.40
7341;DHT22;6870;50.944;6.932;2023-02-28T02:09:06;18.60;28.30
7341;DHT22;6870;50.944;6.932;2023-02-28T02:11:36;19.00;28.80
7341;DHT22;6870;50.944;6.932;2023-02-28T02:14:17;18.80;28.60
7341;DHT22;6870;50.944;6.932;2023-02-28T02:17:05;18.90;28.60
7341;DHT22;6870;50.944;6.932;2023-02-28T02:20:04;19.10;28.90
7341;DHT22;6870;50.944;6.932;2023-02-28T02:29:36;19.00;29.00
7341;DHT22;6870;50.944;6.932;2023-02-28T02:32:34;18.90;29.00
7341;DHT22;6870;50.944;6.932;2023-02-28T02:35:34;18.90;28.60
7341;DHT22;6870;50.944;6.932;2023-02-28T02:38:11;18.90;29.00
7341;DHT22;6870;50.944;6.932;2023-02-28T02:40:49;18.80;28.90
7341;DHT22;6870;50.944;6.932;2023-02-28T02:43:26;18.90;28.80
7341;DHT22;6870;50.944;6.932;2023-02-28T02:46:01;18.60;28.50
7341;DHT22;6870;50.944;6.932;2023-02-28T02:48:34;19.00;28.80
7341;DHT22;6870;50.944;6.932;2023-02-28T02:51:07;18.70;29.00
7341;DHT22;6870;50.944;6.932;2023-02-28T02:53:42;19.00;29.10
7341;DHT22;6870;50.944;6.932;2023-02-28T02:56:17;18.70;28.90
7341;DHT22;6870;50.944;6.932;2023-02-28T02:58:49;18.70;28.90
7341;DHT22;6870;50.944;6.932;2023-02-28T03:01:21;18.70;28.80
7341;DHT22;6870;50.944;6.932;2023-02-28T03:03:57;18.70;28.90
7341;DHT22;6870;50.944;6.932;2023-02-28T03:06:28;18.50;28.90
7341;DHT22;6870;50.944;6.932;2023-02-28T03:08:56;18.50;28.50
7341;DHT22;6870;50.944;6.932;2023-02-28T03:11:24;18.80;29.00
7341;DHT22;6870;50.944;6.932;2023-02-28T03:14:17;18.70;29.00
7341;DHT22;6870;50.944;6.932;2023-02-28T03:20:10;18.80;29.10
7341;DHT22;6870;50.944;6.932;2023-02-28T03:22:52;18.60;29.00
7341;DHT22;6870;50.944;6.932;2023-02-28T03:25:34;18.80;28.80
7341;DHT22;6870;50.944;6.932;2023-02-28T03:28:10;18.40;28.90
7341;DHT22;6870;50.944;6.932;2023-02-28T03:30:45;18.30;28.90
7341;DHT22;6870;50.944;6.932;2023-02-28T03:33:17;18.50;29.30
7341;DHT22;6870;50.944;6.932;2023-02-28T03:35:52;18.50;29.20
7341;DHT22;6870;50.944;6.932;2023-02-28T03:38:28;18.30;29.20
7341;DHT22;6870;50.944;6.932;2023-02-28T03:41:05;18.40;29.30
7341;DHT22;6870;50.944;6.932;2023-02-28T03:43:37;18.60;29.60
7341;DHT22;6870;50.944;6.932;2023-02-28T03:46:09;18.30;29.10
7341;DHT22;6870;50.944;6.932;2023-02-28T03:48:40;18.50;29.30
7341;DHT22;6870;50.944;6.932;2023-02-28T03:51:14;18.20;29.00
7341;DHT22;6870;50.944;6.932;2023-02-28T03:53:49;18.70;29.40
7341;DHT22;6870;50.944;6.932;2023-02-28T03:56:22;18.70;29.40
7341;DHT22;6870;50.944;6.932;2023-02-28T03:58:57;18.90;29.60
7341;DHT22;6870;50.944;6.932;2023-02-28T04:01:33;18.50;29.10
7341;DHT22;6870;50.944;6.932;2023-02-28T04:04:04;18.30;29.30
7341;DHT22;6870;50.944;6.932;2023-02-28T04:06:33;18.40;29.50
7341;DHT22;6870;50.944;6.932;2023-02-28T04:09:05;18.30;29.50
7341;DHT22;6870;50.944;6.932;2023-02-28T04:11:36;18.50;29.30
7341;DHT22;6870;50.944;6.932;2023-02-28T04:14:06;18.20;29.40
7341;DHT22;6870;50.944;6.932;2023-02-28T04:16:37;18.20;29.50
7341;DHT22;6870;50.944;6.932;2023-02-28T04:19:08;18.10;29.40
7341;DHT22;6870;50.944;6.932;2023-02-28T04:21:39;18.40;29.60
7341;DHT22;6870;50.944;6.932;2023-02-28T04:24:11;18.30;29.40
7341;DHT22;6870;50.944;6.932;2023-02-28T04:26:43;18.90;29.50
7341;DHT22;6870;50.944;6.932;2023-02-28T04:29:13;18.30;29.50
7341;DHT22;6870;50.944;6.932;2023-02-28T04:31:45;18.40;29.70
7341;DHT22;6870;50.944;6.932;2023-02-28T04:34:13;18.50;29.70
7341;DHT22;6870;50.944;6.932;2023-02-28T04:36:42;18.50;29.50
7341;DHT22;6870;50.944;6.932;2023-02-28T04:39:11;18.20;29.50
7341;DHT22;6870;50.944;6.932;2023-02-28T04:41:40;18.50;29.70
7341;DHT22;6870;50.944;6.932;2023-02-28T04:44:08;18.60;29.80
7341;DHT22;6870;50.944;6.932;2023-02-28T04:46:36;18.60;29.70
7341;DHT22;6870;50.944;6.932;2023-02-28T04:49:04;18.50;29.60
7341;DHT22;6870;50.944;6.932;2023-02-28T04:51:32;18.20;29.50
7341;DHT22;6870;50.944;6.932;2023-02-28T04:54:00;18.70;29.80
7341;DHT22;6870;50.944;6.932;2023-02-28T04:56:30;18.50;29.60
7341;DHT22;6870;50.944;6.932;2023-02-28T04:58:58;18.70;29.70
7341;DHT22;6870;50.944;6.932;2023-02-28T05:01:27;18.20;29.40
7341;DHT22;6870;50.944;6.932;2023-02-28T05:03:58;18.60;29.70
7341;DHT22;6870;50.944;6.932;2023-02-28T05:06:27;18.30;29.50
7341;DHT22;6870;50.944;6.932;2023-02-28T05:08:57;18.60;30.00
7341;DHT22;6870;50.944;6.932;2023-02-28T05:11:27;18.20;29.90
7341;DHT22;6870;50.944;6.932;2023-02-28T05:14:01;18.60;30.20
7341;DHT22;6870;50.944;6.932;2023-02-28T05:16:30;18.30;29.80
7341;DHT22;6870;50.944;6.932;2023-02-28T05:18:59;18.10;30.10
7341;DHT22;6870;50.944;6.932;2023-02-28T05:21:29;18.20;29.80
7341;DHT22;6870;50.944;6.932;2023-02-28T05:23:59;18.10;28.70
7341;DHT22;6870;50.944;6.932;2023-02-28T05:26:29;17.90;27.30
7341;DHT22;6870;50.944;6.932;2023-02-28T05:28:57;17.90;26.70
7341;DHT22;6870;50.944;6.932;2023-02-28T05:31:27;17.70;25.20
7341;DHT22;6870;50.944;6.932;2023-02-28T05:33:55;18.30;26.70
7341;DHT22;6870;50.944;6.932;2023-02-28T05:36:23;18.00;26.50
7341;DHT22;6870;50.944;6.932;2023-02-28T05:38:52;18.40;26.50
7341;DHT22;6870;50.944;6.932;2023-02-28T05:41:20;18.20;26.30
7341;DHT22;6870;50.944;6.932;2023-02-28T05:43:48;18.10;26.70
7341;DHT22;6870;50.944;6.932;2023-02-28T05:46:17;18.20;26.90
7341;DHT22;6870;50.944;6.932;2023-02-28T05:48:48;18.30;27.10
7341;DHT22;6870;50.944;6.932;2023-02-28T05:51:16;18.10;26.90
7341;DHT22;6870;50.944;6.932;2023-02-28T05:53:44;18.10;27.10
7341;DHT22;6870;50.944;6.932;2023-02-28T05:56:14;18.20;27.10
7341;DHT22;6870;50.944;6.932;2023-02-28T05:58:42;18.40;27.30
7341;DHT22;6870;50.944;6.932;2023-02-28T06:01:22;18.20;27.20
7341;DHT22;6870;50.944;6.932;2023-02-28T06:03:53;18.20;27.30
7341;DHT22;6870;50.944;6.932;2023-02-28T06:06:21;18.50;27.10
7341;DHT22;6870;50.944;6.932;2023-02-28T06:08:49;18.00;27.30
7341;DHT22;6870;50.944;6.932;2023-02-28T06:11:17;18.00;27.30
7341;DHT22;6870;50.944;6.932;2023-02-28T06:13:46;18.50;27.50
7341;DHT22;6870;50.944;6.932;2023-02-28T06:16:14;18.40;27.10
7341;DHT22;6870;50.944;6.932;2023-02-28T06:18:43;18.20;26.90
7341;DHT22;6870;50.944;6.932;2023-02-28T06:21:12;18.20;27.10
7341;DHT22;6870;50.944;6.932;2023-02-28T06:23:40;18.30;27.10
7341;DHT22;6870;50.944;6.932;2023-02-28T06:26:08;18.00;26.90
7341;DHT22;6870;50.944;6.932;2023-02-28T06:28:37;18.10;26.90
7341;DHT22;6870;50.944;6.932;2023-02-28T06:31:08;18.30;27.20
7341;DHT22;6870;50.944;6.932;2023-02-28T06:33:38;18.20;27.00
7341;DHT22;6870;50.944;6.932;2023-02-28T06:36:07;18.50;27.20
7341;DHT22;6870;50.944;6.932;2023-02-28T06:38:38;18.10;26.90
7341;DHT22;6870;50.944;6.932;2023-02-28T06:41:08;18.50;26.80
7341;DHT22;6870;50.944;6.932;2023-02-28T06:43:37;18.30;27.10
7341;DHT22;6870;50.944;6.932;2023-02-28T06:46:10;18.20;27.00
7341;DHT22;6870;50.944;6.932;2023-02-28T06:48:40;18.30;27.10
7341;DHT22;6870;50.944;6.932;2023-02-28T06:51:10;18.40;27.10
7341;DHT22;6870;50.944;6.932;2023-02-28T06:53:41;18.50;27.10
7341;DHT22;6870;50.944;6.932;2023-02-28T06:56:10;18.30;26.50
7341;DHT22;6870;50.944;6.932;2023-02-28T06:58:46;18.00;26.80
7341;DHT22;6870;50.944;6.932;2023-02-28T07:01:15;18.50;26.90
7341;DHT22;6870;50.944;6.932;2023-02-28T07:03:43;18.10;26.90
7341;DHT22;6870;50.944;6.932;2023-02-28T07:06:11;18.40;27.20
7341;DHT22;6870;50.944;6.932;2023-02-28T07:08:41;18.30;27.10
7341;DHT22;6870;50.944;6.932;2023-02-28T07:11:09;18.10;27.00
7341;DHT22;6870;50.944;6.932;2023-02-28T07:13:37;18.40;27.30
7341;DHT22;6870;50.944;6.932;2023-02-28T07:16:06;18.00;27.00
7341;DHT22;6870;50.944;6.932;2023-02-28T07:18:37;18.20;26.80
7341;DHT22;6870;50.944;6.932;2023-02-28T07:21:07;18.20;27.10
7341;DHT22;6870;50.944;6.932;2023-02-28T07:23:37;18.30;27.00
7341;DHT22;6870;50.944;6.932;2023-02-28T07:26:12;18.20;27.10
7341;DHT22;6870;50.944;6.932;2023-02-28T07:28:42;18.30;27.00
7341;DHT22;6870;50.944;6.932;2023-02-28T07:31:11;18.30;27.10
7341;DHT22;6870;50.944;6.932;2023-02-28T07:33:41;18.30;26.80
7341;DHT22;6870;50.944;6.932;2023-02-28T07:36:11;18.10;27.10
7341;DHT22;6870;50.944;6.932;2023-02-28T07:38:42;18.30;27.10
7341;DHT22;6870;50.944;6.932;2023-02-28T07:41:15;18.00;27.00
7341;DHT22;6870;50.944;6.932;2023-02-28T07:43:44;18.00;27.00
7341;DHT22;6870;50.944;6.932;2023-02-28T07:46:14;18.30;27.30
7341;DHT22;6870;50.944;6.932;2023-02-28T07:48:43;18.20;27.10
7341;DHT22;6870;50.944;6.932;2023-02-28T07:51:12;18.40;27.30
7341;DHT22;6870;50.944;6.932;2023-02-28T07:53:40;18.10;27.00
7341;DHT22;6870;50.944;6.932;2023-02-28T07:56:08;18.30;26.90
7341;DHT22;6870;50.944;6.932;2023-02-28T07:58:38;18.60;26.60
7341;DHT22;6870;50.944;6.932;2023-02-28T08:01:07;18.20;26.10
7341;DHT22;6870;50.944;6.932;2023-02-28T08:03:37;18.70;26.90
7341;DHT22;6870;50.944;6.932;2023-02-28T08:06:07;18.60;26.90
7341;DHT22;6870;50.944;6.932;2023-02-28T08:08:37;18.60;26.90
7341;DHT22;6870;50.944;6.932;2023-02-28T08:11:05;18.40;26.90
7341;DHT22;6870;50.944;6.932;2023-02-28T08:13:33;18.50;26.90
7341;DHT22;6870;50.944;6.932;2023-02-28T08:16:03;18.10;26.60
7341;DHT22;6870;50.944;6.932;2023-02-28T08:18:32;18.30;26.60
7341;DHT22;6870;50.944;6.932;2023-02-28T08:21:06;18.70;27.00
7341;DHT22;6870;50.944;6.932;2023-02-28T08:23:34;18.50;26.50
7341;DHT22;6870;50.944;6.932;2023-02-28T08:26:03;18.70;26.70
7341;DHT22;6870;50.944;6.932;2023-02-28T08:28:32;18.60;26.50
7341;DHT22;6870;50.944;6.932;2023-02-28T08:31:00;18.50;26.50
7341;DHT22;6870;50.944;6.932;2023-02-28T08:33:29;18.90;26.70
7341;DHT22;6870;50.944;6.932;2023-02-28T08:35:58;18.40;26.30
7341;DHT22;6870;50.944;6.932;2023-02-28T08:38:26;18.90;26.60
7341;DHT22;6870;50.944;6.932;2023-02-28T08:40:57;18.60;26.20
7341;DHT22;6870;50.944;6.932;2023-02-28T08:43:26;18.80;26.20
7341;DHT22;6870;50.944;6.932;2023-02-28T08:45:54;18.90;26.20
7341;DHT22;6870;50.944;6.932;2023-02-28T08:48:24;18.90;26.00
7341;DHT22;6870;50.944;6.932;2023-02-28T08:50:58;18.70;25.50
7341;DHT22;6870;50.944;6.932;2023-02-28T08:53:33;19.10;25.60
7341;DHT22;6870;50.944;6.932;2023-02-28T08:56:03;19.30;25.10
7341;DHT22;6870;50.944;6.932;2023-02-28T08:58:33;19.40;25.30
7341;DHT22;6870;50.944;6.932;2023-02-28T09:01:08;19.20;25.00
7341;DHT22;6870;50.944;6.932;2023-02-28T09:03:36;19.50;24.80
7341;DHT22;6870;50.944;6.932;2023-02-28T09:06:06;19.30;24.50
7341;DHT22;6870;50.944;6.932;2023-02-28T09:08:35;19.60;24.50
7341;DHT22;6870;50.944;6.932;2023-02-28T09:11:04;19.70;24.40
7341;DHT22;6870;50.944;6.932;2023-02-28T09:13:33;19.80;24.20
7341;DHT22;6870;50.944;6.932;2023-02-28T09:16:03;19.70;24.20
7341;DHT22;6870;50.944;6.932;2023-02-28T09:18:33;19.70;24.00
7341;DHT22;6870;50.944;6.932;2023-02-28T09:21:03;19.70;23.90
7341;DHT22;6870;50.944;6.932;2023-02-28T09:23:32;19.80;23.50
7341;DHT22;6870;50.944;6.932;2023-02-28T09:26:00;19.90;23.50
7341;DHT22;6870;50.944;6.932;2023-02-28T09:28:28;19.80;23.20
7341;DHT22;6870;50.944;6.932;2023-02-28T09:30:56;19.70;22.80
7341;DHT22;6870;50.944;6.932;2023-02-28T09:33:26;19.70;22.10
7341;DHT22;6870;50.944;6.932;2023-02-28T09:35:59;20.10;23.00
7341;DHT22;6870;50.944;6.932;2023-02-28T09:38:28;20.00;22.60
7341;DHT22;6870;50.944;6.932;2023-02-28T09:41:00;19.80;22.30
7341;DHT22;6870;50.944;6.932;2023-02-28T09:43:33;20.20;22.20
7341;DHT22;6870;50.944;6.932;2023-02-28T09:46:08;20.20;21.70
7341;DHT22;6870;50.944;6.932;2023-02-28T09:48:45;20.50;21.60
7341;DHT22;6870;50.944;6.932;2023-02-28T09:51:25;20.60;21.30
7341;DHT22;6870;50.944;6.932;2023-02-28T09:53:56;20.30;20.80
7341;DHT22;6870;50.944;6.932;2023-02-28T09:56:34;20.60;20.70
7341;DHT22;6870;50.944;6.932;2023-02-28T09:59:11;20.50;20.50
7341;DHT22;6870;50.944;6.932;2023-02-28T10:01:50;20.80;20.30
7341;DHT22;6870;50.944;6.932;2023-02-28T10:04:36;20.80;19.90
7341;DHT22;6870;50.944;6.932;2023-02-28T10:07:21;20.20;19.40
7341;DHT22;6870;50.944;6.932;2023-02-28T10:10:19;20.90;19.40
7341;DHT22;6870;50.944;6.932;2023-02-28T10:12:53;20.40;18.80
7341;DHT22;6870;50.944;6.932;2023-02-28T10:15:24;20.60;18.40
7341;DHT22;6870;50.944;6.932;2023-02-28T10:17:56;20.80;18.30
7341;DHT22;6870;50.944;6.932;2023-02-28T10:20:37;20.80;18.60
7341;DHT22;6870;50.944;6.932;2023-02-28T10:23:13;21.00;19.40
7341;DHT22;6870;50.944;6.932;2023-02-28T10:25:47;20.90;19.20
7341;DHT22;6870;50.944;6.932;2023-02-28T10:28:23;21.00;18.90
7341;DHT22;6870;50.944;6.932;2023-02-28T10:30:53;21.00;19.00
7341;DHT22;6870;50.944;6.932;2023-02-28T10:33:24;20.90;18.50
7341;DHT22;6870;50.944;6.932;2023-02-28T10:35:53;21.20;18.20
7341;DHT22;6870;50.944;6.932;2023-02-28T10:38:24;20.80;18.00
7341;DHT22;6870;50.944;6.932;2023-02-28T10:41:04;21.00;17.80
7341;DHT22;6870;50.944;6.932;2023-02-28T10:43:34;21.40;18.00
7341;DHT22;6870;50.944;6.932;2023-02-28T10:46:05;21.10;14.80
7341;DHT22;6870;50.944;6.932;2023-02-28T10:48:44;20.70;9.70
7341;DHT22;6870;50.944;6.932;2023-02-28T10:51:16;20.10;8.30
7341;DHT22;6870;50.944;6.932;2023-02-28T10:53:48;19.90;6.90
7341;DHT22;6870;50.944;6.932;2023-02-28T10:56:28;19.80;5.30
7341;DHT22;6870;50.944;6.932;2023-02-28T10:59:00;19.70;6.50
7341;DHT22;6870;50.944;6.932;2023-02-28T11:01:38;20.00;4.50
7341;DHT22;6870;50.944;6.932;2023-02-28T11:04:18;19.60;4.60
7341;DHT22;6870;50.944;6.932;2023-02-28T11:06:56;19.60;3.40
7341;DHT22;6870;50.944;6.932;2023-02-28T11:09:29;19.10;1.10
7341;DHT22;6870;50.944;6.932;2023-02-28T11:11:59;19.10;5.00
7341;DHT22;6870;50.944;6.932;2023-02-28T11:14:31;19.40;1.70
7341;DHT22;6870;50.944;6.932;2023-02-28T11:17:13;19.40;2.00
7341;DHT22;6870;50.944;6.932;2023-02-28T11:19:46;19.60;1.20
7341;DHT22;6870;50.944;6.932;2023-02-28T11:22:19;19.60;1.00
7341;DHT22;6870;50.944;6.932;2023-02-28T11:24:50;19.20;2.30
7341;DHT22;6870;50.944;6.932;2023-02-28T11:27:26;19.10;2.60
7341;DHT22;6870;50.944;6.932;2023-02-28T11:30:24;19.10;1.00
7341;DHT22;6870;50.944;6.932;2023-02-28T11:32:57;19.80;1.00
7341;DHT22;6870;50.944;6.932;2023-02-28T11:35:31;19.80;1.60
7341;DHT22;6870;50.944;6.932;2023-02-28T11:38:01;19.80;1.20
7341;DHT22;6870;50.944;6.932;2023-02-28T11:40:35;19.60;1.00
7341;DHT22;6870;50.944;6.932;2023-02-28T11:43:19;19.70;1.00
7341;DHT22;6870;50.944;6.932;2023-02-28T11:46:06;19.70;1.00
7341;DHT22;6870;50.944;6.932;2023-02-28T11:48:49;19.90;1.00
7341;DHT22;6870;50.944;6.932;2023-02-28T11:51:26;20.10;1.00
7341;DHT22;6870;50.944;6.932;2023-02-28T11:54:11;20.20;1.00
7341;DHT22;6870;50.944;6.932;2023-02-28T11:56:52;20.10;1.00
7341;DHT22;6870;50.944;6.932;2023-02-28T11:59:47;20.40;1.00
7341;DHT22;6870;50.944;6.932;2023-02-28T12:02:28;20.00;1.00
7341;DHT22;6870;50.944;6.932;2023-02-28T12:05:16;20.00;1.60
7341;DHT22;6870;50.944;6.932;2023-02-28T12:07:59;20.70;2.20
7341;DHT22;6870;50.944;6.932;2023-02-28T12:10:39;21.00;2.10
7341;DHT22;6870;50.944;6.932;2023-02-28T12:13:18;20.90;1.90
7341;DHT22;6870;50.944;6.932;2023-02-28T12:19:06;20.80;2.00
7341;DHT22;6870;50.944;6.932;2023-02-28T12:21:51;21.00;2.10
7341;DHT22;6870;50.944;6.932;2023-02-28T12:27:48;21.30;1.80
7341;DHT22;6870;50.944;6.932;2023-02-28T12:30:22;21.20;1.00
7341;DHT22;6870;50.944;6.932;2023-02-28T12:32:55;21.00;1.20
7341;DHT22;6870;50.944;6.932;2023-02-28T12:35:32;20.90;1.50
7341;DHT22;6870;50.944;6.932;2023-02-28T12:38:05;20.70;1.40
7341;DHT22;6870;50.944;6.932;2023-02-28T12:40:43;20.40;1.00
7341;DHT22;6870;50.944;6.932;2023-02-28T12:43:15;20.80;1.10
7341;DHT22;6870;50.944;6.932;2023-02-28T12:45:48;20.80;1.10
7341;DHT22;6870;50.944;6.932;2023-02-28T12:48:24;21.30;1.00
7341;DHT22;6870;50.944;6.932;2023-02-28T12:50:57;21.30;1.30
7341;DHT22;6870;50.944;6.932;2023-02-28T12:53:33;21.20;1.40
7341;DHT22;6870;50.944;6.932;2023-02-28T12:56:12;21.00;1.00
7341;DHT22;6870;50.944;6.932;2023-02-28T12:58:45;21.00;1.00
7341;DHT22;6870;50.944;6.932;2023-02-28T13:01:40;21.40;1.20
7341;DHT22;6870;50.944;6.932;2023-02-28T13:04:42;21.30;1.10
7341;DHT22;6870;50.944;6.932;2023-02-28T13:10:42;21.40;1.00
7341;DHT22;6870;50.944;6.932;2023-02-28T13:13:16;21.40;1.00
7341;DHT22;6870;50.944;6.932;2023-02-28T13:16:03;21.40;1.00
7341;DHT22;6870;50.944;6.932;2023-02-28T13:18:35;21.30;1.00
7341;DHT22;6870;50.944;6.932;2023-02-28T13:21:08;21.30;1.00
7341;DHT22;6870;50.944;6.932;2023-02-28T13:23:41;21.30;1.00
7341;DHT22;6870;50.944;6.932;2023-02-28T13:29:54;21.40;1.00
7341;DHT22;6870;50.944;6.932;2023-02-28T13:32:33;21.50;1.00
7341;DHT22;6870;50.944;6.932;2023-02-28T13:35:45;21.60;1.00
7341;DHT22;6870;50.944;6.932;2023-02-28T13:38:33;21.60;1.00
7341;DHT22;6870;50.944;6.932;2023-02-28T13:44:16;21.60;1.00
7341;DHT22;6870;50.944;6.932;2023-02-28T13:47:21;21.70;1.00
7341;DHT22;6870;50.944;6.932;2023-02-28T13:49:52;21.60;1.00
7341;DHT22;6870;50.944;6.932;2023-02-28T13:52:22;21.90;1.00
7341;DHT22;6870;50.944;6.932;2023-02-28T13:55:02;21.90;1.00
7341;DHT22;6870;50.944;6.932;2023-02-28T13:57:54;21.80;1.00
7341;DHT22;6870;50.944;6.932;2023-02-28T14:00:43;22.00;1.00
7341;DHT22;6870;50.944;6.932;2023-02-28T14:03:41;22.10;1.00
7341;DHT22;6870;50.944;6.932;2023-02-28T14:06:22;22.20;1.80
7341;DHT22;6870;50.944;6.932;2023-02-28T14:08:58;22.50;1.90
7341;DHT22;6870;50.944;6.932;2023-02-28T14:11:30;22.40;1.50
7341;DHT22;6870;50.944;6.932;2023-02-28T14:14:02;22.10;1.50
7341;DHT22;6870;50.944;6.932;2023-02-28T14:16:38;22.50;2.70
7341;DHT22;6870;50.944;6.932;2023-02-28T14:19:12;22.00;2.10
7341;DHT22;6870;50.944;6.932;2023-02-28T14:21:52;22.40;2.30
7341;DHT22;6870;50.944;6.932;2023-02-28T14:24:50;22.00;2.10
7341;DHT22;6870;50.944;6.932;2023-02-28T14:27:35;22.40;2.60
7341;DHT22;6870;50.944;6.932;2023-02-28T14:30:29;22.50;2.80
7341;DHT22;6870;50.944;6.932;2023-02-28T14:33:19;22.50;2.70
7341;DHT22;6870;50.944;6.932;2023-02-28T14:36:00;22.30;2.50
7341;DHT22;6870;50.944;6.932;2023-02-28T14:38:35;22.50;3.10
7341;DHT22;6870;50.944;6.932;2023-02-28T14:41:16;22.60;3.20
7341;DHT22;6870;50.944;6.932;2023-02-28T14:43:50;22.10;1.10
7341;DHT22;6870;50.944;6.932;2023-02-28T14:46:23;21.30;1.00
7341;DHT22;6870;50.944;6.932;2023-02-28T14:48:55;21.00;1.00
7341;DHT22;6870;50.944;6.932;2023-02-28T14:51:24;20.40;1.00
7341;DHT22;6870;50.944;6.932;2023-02-28T14:53:57;20.80;1.30
7341;DHT22;6870;50.944;6.932;2023-02-28T14:56:30;21.80;2.80
7341;DHT22;6870;50.944;6.932;2023-02-28T14:59:02;21.90;3.20
7341;DHT22;6870;50.944;6.932;2023-02-28T15:01:32;22.00;3.30
7341;DHT22;6870;50.944;6.932;2023-02-28T15:04:03;22.10;3.10
7341;DHT22;6870;50.944;6.932;2023-02-28T15:06:32;22.30;3.90
7341;DHT22;6870;50.944;6.932;2023-02-28T15:09:13;22.20;4.20
7341;DHT22;6870;50.944;6.932;2023-02-28T15:11:46;22.40;4.40
7341;DHT22;6870;50.944;6.932;2023-02-28T15:14:19;22.40;3.80
7341;DHT22;6870;50.944;6.932;2023-02-28T15:16:55;22.00;3.50
7341;DHT22;6870;50.944;6.932;2023-02-28T15:19:26;22.30;3.80
7341;DHT22;6870;50.944;6.932;2023-02-28T15:21:59;21.90;4.40
7341;DHT22;6870;50.944;6.932;2023-02-28T15:24:36;22.50;5.10
7341;DHT22;6870;50.944;6.932;2023-02-28T15:27:07;22.10;4.90
7341;DHT22;6870;50.944;6.932;2023-02-28T15:29:44;22.40;5.70
7341;DHT22;6870;50.944;6.932;2023-02-28T15:32:30;22.20;5.50
7341;DHT22;6870;50.944;6.932;2023-02-28T15:35:17;21.10;1.00
7341;DHT22;6870;50.944;6.932;2023-02-28T15:37:52;19.90;1.00
7341;DHT22;6870;50.944;6.932;2023-02-28T15:40:24;19.00;1.00
7341;DHT22;6870;50.944;6.932;2023-02-28T15:42:59;20.00;4.10
7341;DHT22;6870;50.944;6.932;2023-02-28T15:45:37;20.40;3.40
7341;DHT22;6870;50.944;6.932;2023-02-28T15:48:18;21.00;3.70
7341;DHT22;6870;50.944;6.932;2023-02-28T15:50:49;21.60;4.40
7341;DHT22;6870;50.944;6.932;2023-02-28T15:53:22;21.70;5.00
7341;DHT22;6870;50.944;6.932;2023-02-28T15:55:57;21.60;4.60
7341;DHT22;6870;50.944;6.932;2023-02-28T15:58:27;21.70;5.40
7341;DHT22;6870;50.944;6.932;2023-02-28T16:01:18;21.40;5.60
7341;DHT22;6870;50.944;6.932;2023-02-28T16:03:52;21.50;6.00
7341;DHT22;6870;50.944;6.932;2023-02-28T16:06:37;21.40;6.00
7341;DHT22;6870;50.944;6.932;2023-02-28T16:09:11;21.40;6.50
7341;DHT22;6870;50.944;6.932;2023-02-28T16:11:43;21.30;6.70
7341;DHT22;6870;50.944;6.932;2023-02-28T16:14:16;21.40;7.00
7341;DHT22;6870;50.944;6.932;2023-02-28T16:16:47;21.40;7.20
7341;DHT22;6870;50.944;6.932;2023-02-28T16:19:17;21.30;7.20
7341;DHT22;6870;50.944;6.932;2023-02-28T16:21:46;21.30;7.50
7341;DHT22;6870;50.944;6.932;2023-02-28T16:24:14;21.20;7.40
7341;DHT22;6870;50.944;6.932;2023-02-28T16:26:45;21.20;7.80
7341;DHT22;6870;50.944;6.932;2023-02-28T16:29:20;21.00;8.00
7341;DHT22;6870;50.944;6.932;2023-02-28T16:31:51;21.20;8.50
7341;DHT22;6870;50.944;6.932;2023-02-28T16:34:22;21.00;8.50
7341;DHT22;6870;50.944;6.932;2023-02-28T16:36:50;21.30;9.20
7341;DHT22;6870;50.944;6.932;2023-02-28T16:39:19;21.10;9.30
7341;DHT22;6870;50.944;6.932;2023-02-28T16:41:48;20.70;9.10
7341;DHT22;6870;50.944;6.932;2023-02-28T16:44:24;21.20;9.80
7341;DHT22;6870;50.944;6.932;2023-02-28T16:46:54;20.90;9.70
7341;DHT22;6870;50.944;6.932;2023-02-28T16:49:24;20.80;10.00
7341;DHT22;6870;50.944;6.932;2023-02-28T16:51:52;20.70;10.00
7341;DHT22;6870;50.944;6.932;2023-02-28T16:54:20;21.20;10.60
7341;DHT22;6870;50.944;6.932;2023-02-28T16:56:49;20.80;10.80
7341;DHT22;6870;50.944;6.932;2023-02-28T16:59:21;20.80;10.90
7341;DHT22;6870;50.944;6.932;2023-02-28T17:01:50;20.70;11.00
7341;DHT22;6870;50.944;6.932;2023-02-28T17:04:19;20.80;11.20
7341;DHT22;6870;50.944;6.932;2023-02-28T17:06:48;20.70;11.80
7341;DHT22;6870;50.944;6.932;2023-02-28T17:09:19;20.70;11.40
7341;DHT22;6870;50.944;6.932;2023-02-28T17:11:56;20.50;11.80
7341;DHT22;6870;50.944;6.932;2023-02-28T17:14:26;20.60;12.00
7341;DHT22;6870;50.944;6.932;2023-02-28T17:16:54;20.80;11.90